Sendai Airport
RJSS : now visible

Airfield :











YOU CAN JOIN US ON...

 
LOGIN :

Register | Disclaimer

   EN    FR    IT 

 









Legend :    VFR   Marginal VFR   IFR   Intensive IFR   Very Intensive IFR
Visi :
Ceiling :
>= 8 km
>= 3000ft
5 to 8 km
1000 to 3000 ft
1500m to 5 km
500 to 1000 ft
800 to 1500m
200 to 500 ft
< 800m
< 200 ft
Symbols :   Thunderstorms  Fog  Heavy snow  Heavy precipitations  Wind > 20 kt






- Airport Elevation : 15 ft
- IATA code : SDJ


RJSS - Sendai

EXPIRED METARs :
  • 011219Z 35013KT 6000 RA FEW003 SCT005 BKN006 11/10 Q0996 RMK 1ST003 3ST005 6ST006 A2943 P/FR
  • 011200Z 35014KT 5000 RA BR FEW003 BKN005 BKN007 11/10 Q0997

TAF TAF RJSS
Valid from the 01 at 12:00 until the 02 at 18:00 UTC


011105Z 0112/0218 01010KT 8000 -SHRA FEW010 BKN020 BKN030
TEMPO 0112/0115 3000 SHRA BR FEW003 BKN005 BKN008
BECMG 0113/0115 32015KT
BECMG 0121/0123 29020G30KT
TEMPO 0206/0209 29030G40KT
BECMG 0215/0218 29010KT



MET'MAP, your aeronautical weather chart ! - Copyright ORBIFLY December 2007 - Disclaimer

ORBIFLY MET'MAP TEAM :

Programming & Development : Alexandra Zaïnal
Concept & original design : Baudouin d'Aumeries
Assistance for programming : Marc-Olivier Méhu
Technical & hardware support : Manuel Goepfert

Contact : metmap@orbifly.com




SOURCES & CREDITS :

   NOAA       Earth
Advisory